Main page
METAR-TAF:

METAR-TAF

Airports :

Šiauliai, Lithuania

Šiauliai International Airport

latitude: 55-53-38N, longitude: 023-23-42E, elevation: 135 m

Current weather observation

The report was made 24 minutes ago, at 02:20 UTC
Wind 8 kt from the West
Temperature 6°C
Humidity 75%
Pressure 1011 hPa
Visibility 10 km or more
no clouds below 1500 m and no cumulonimbus

METAR: EYSA 220220Z 27008KT CAVOK 06/02 Q1011 BLU NOSIG

Time: 05:44 (02:44 UTC)

Forecast

The report was made 41 minutes ago, at 02:03 UTC
Forecast valid from 22 at 03 UTC to 22 at 12 UTC
Wind 10 kt from the West
Visibility: 9000 m
Scattered clouds at a height of 3000 ft
Temporary
from 22 at 03 UTC to 22 at 06 UTC
Scattered clouds at a height of 500 ft
Becoming
from 22 at 08 UTC to 22 at 09 UTC
Wind 16 kt from the North/Northwest

TAF: EYSA 220203Z 2203/2212 27010KT 9000 SCT030 TEMPO 2203/2206 SCT005 BECMG 2208/2209 34016KT

Weather observations and forecasts of more than 4000 airports (METAR and TAF reports).

The available stations are represented by yellow and red dots on the map.

Hover mouse over dot to see the name of the station.

Then click to see weather observations and forecasts.

To change the map : click on the green buttons with a black cross to zoom in, on the green button with a dash to zoom out, or on the green arrows for adjacent maps.


METAR-TAF: